Time;durP1;ratioP1;P1;durP2;ratioP2;P2;SDS_P1;SDS_P2;PMS_P1;PMS_P2;Temp;Humidity;BMP_temperature;BMP_pressure;BME280_temperature;BME280_humidity;BME280_pressure;Samples;Min_cycle;Max_cycle;Signal;HPM_P1;HPM_P2
2021/10/10 00:00:18;;;;;;;0.40;0.30;;;7.20;99.90;;;;;;4993163;28;20414;-71
2021/10/10 00:02:43;;;;;;;0.40;0.20;;;7.10;99.90;;;;;;4992559;28;20371;-72
2021/10/10 00:05:09;;;;;;;0.40;0.30;;;7.20;99.90;;;;;;4992735;28;20375;-71
2021/10/10 00:07:35;;;;;;;0.40;0.20;;;6.90;99.90;;;;;;4992341;28;20420;-73
2021/10/10 00:10:00;;;;;;;0.70;0.70;;;7.00;99.90;;;;;;4992984;28;20477;-72
2021/10/10 00:12:26;;;;;;;0.40;0.30;;;6.90;99.90;;;;;;4992034;28;20759;-72
2021/10/10 00:14:52;;;;;;;0.40;0.20;;;7.10;99.90;;;;;;4992743;28;20383;-72
2021/10/10 00:17:17;;;;;;;0.40;0.20;;;6.90;99.90;;;;;;4992502;28;20457;-72
2021/10/10 00:19:43;;;;;;;0.40;0.30;;;6.70;99.90;;;;;;4992365;28;20378;-72
2021/10/10 00:22:09;;;;;;;0.40;0.40;;;6.80;99.90;;;;;;4992727;28;20378;-72
2021/10/10 00:24:35;;;;;;;0.40;0.30;;;6.70;99.90;;;;;;4991827;28;20386;-72
2021/10/10 00:27:00;;;;;;;0.40;0.20;;;6.70;99.90;;;;;;4992227;28;20453;-72
2021/10/10 00:29:26;;;;;;;0.40;0.30;;;6.70;99.90;;;;;;4991949;28;20461;-72
2021/10/10 00:31:51;;;;;;;0.40;0.20;;;6.80;99.90;;;;;;4992579;28;20386;-71
2021/10/10 00:34:17;;;;;;;0.40;0.20;;;6.80;99.90;;;;;;4992576;28;20378;-72
2021/10/10 00:36:43;;;;;;;0.40;0.20;;;6.90;99.90;;;;;;4991925;28;20418;-72
2021/10/10 00:39:08;;;;;;;0.50;0.40;;;6.70;99.90;;;;;;4992392;28;20379;-72
2021/10/10 00:41:36;;;;;;;0.40;0.22;;;6.70;99.90;;;;;;4991754;28;20937;-72
2021/10/10 00:44:09;;;;;;;0.40;0.20;;;6.90;99.90;;;;;;4992298;28;20401;-72
2021/10/10 00:46:35;;;;;;;0.90;0.70;;;6.90;99.90;;;;;;4973656;28;20403;-71
2021/10/10 00:49:01;;;;;;;0.40;0.30;;;6.80;99.90;;;;;;4972968;28;20376;-71
2021/10/10 00:51:31;;;;;;;0.40;0.37;;;6.80;99.90;;;;;;4972146;28;20388;-71
2021/10/10 00:53:58;;;;;;;0.80;0.70;;;6.80;99.90;;;;;;4973039;28;20475;-71
2021/10/10 00:56:24;;;;;;;0.40;0.30;;;6.80;99.90;;;;;;4972276;28;20432;-72
2021/10/10 00:58:50;;;;;;;0.40;0.30;;;6.80;99.90;;;;;;4973050;28;20841;-72
2021/10/10 01:01:16;;;;;;;0.40;0.30;;;6.80;99.90;;;;;;4972235;28;20875;-71
2021/10/10 01:03:41;;;;;;;0.40;0.20;;;6.80;99.90;;;;;;4971900;28;20392;-71
2021/10/10 01:06:07;;;;;;;0.40;0.20;;;6.80;99.90;;;;;;4972555;28;20380;-71
2021/10/10 01:08:33;;;;;;;0.40;0.20;;;6.70;99.90;;;;;;4971838;28;20412;-71
2021/10/10 01:10:59;;;;;;;0.60;0.60;;;6.60;99.90;;;;;;4972354;28;20773;-71
2021/10/10 01:13:25;;;;;;;0.40;0.30;;;6.60;99.90;;;;;;4971888;28;20384;-72
2021/10/10 01:15:51;;;;;;;0.40;0.30;;;6.60;99.90;;;;;;4972228;28;20476;-71
2021/10/10 01:18:24;;;;;;;0.40;0.20;;;6.50;99.90;;;;;;4972278;28;20399;-71
2021/10/10 01:20:51;;;;;;;0.40;0.20;;;6.60;99.90;;;;;;4972247;28;20454;-72
2021/10/10 01:23:17;;;;;;;0.40;0.20;;;6.40;99.90;;;;;;4972309;28;20368;-71
2021/10/10 01:25:42;;;;;;;0.40;0.20;;;6.10;99.90;;;;;;4953922;28;20872;-72
2021/10/10 01:28:08;;;;;;;0.40;0.20;;;6.40;99.90;;;;;;4972293;28;20428;-71
2021/10/10 01:30:34;;;;;;;0.40;0.32;;;6.70;99.90;;;;;;4971514;28;20439;-72
2021/10/10 01:33:01;;;;;;;0.40;0.30;;;6.60;99.90;;;;;;4972348;28;20384;-71
2021/10/10 01:35:27;;;;;;;0.40;0.20;;;6.40;99.90;;;;;;4971452;28;20389;-72
2021/10/10 01:37:52;;;;;;;0.40;0.20;;;6.50;99.90;;;;;;4972251;28;20381;-72
2021/10/10 01:40:18;;;;;;;0.40;0.20;;;6.40;99.90;;;;;;4972062;28;20410;-71
2021/10/10 01:42:44;;;;;;;0.40;0.28;;;6.30;99.90;;;;;;4954058;28;20392;-71
2021/10/10 01:45:18;;;;;;;0.40;0.30;;;6.00;99.90;;;;;;4978278;28;20387;-71
2021/10/10 01:47:44;;;;;;;0.40;0.20;;;6.50;99.90;;;;;;4990445;28;20409;-72
2021/10/10 01:50:10;;;;;;;0.40;0.30;;;6.40;99.90;;;;;;4973839;28;20390;-71
2021/10/10 01:52:40;;;;;;;0.40;0.20;;;6.30;99.90;;;;;;4990817;28;20383;-72
2021/10/10 01:55:06;;;;;;;0.40;0.30;;;6.20;99.90;;;;;;4991271;28;20395;-71
2021/10/10 01:57:31;;;;;;;0.50;0.40;;;6.00;99.90;;;;;;4973106;28;20405;-72
2021/10/10 01:59:57;;;;;;;0.40;0.30;;;5.90;99.90;;;;;;4991291;28;20387;-72
2021/10/10 02:02:22;;;;;;;0.50;0.50;;;5.90;99.90;;;;;;4991210;28;20385;-71
2021/10/10 02:04:48;;;;;;;0.40;0.30;;;5.90;99.90;;;;;;4990709;28;20517;-72
2021/10/10 02:07:14;;;;;;;0.40;0.40;;;5.90;99.90;;;;;;4991187;28;20832;-72
2021/10/10 02:09:42;;;;;;;1.30;0.80;;;5.90;99.90;;;;;;4990690;28;20408;-72
2021/10/10 02:12:07;;;;;;;4.15;0.85;;;5.90;99.90;;;;;;4991089;28;20421;-72
2021/10/10 02:14:34;;;;;;;1.20;0.40;;;5.90;99.90;;;;;;4992654;28;20500;-72
2021/10/10 02:17:00;;;;;;;1.40;0.60;;;6.00;99.90;;;;;;4994698;28;20926;-72
2021/10/10 02:19:26;;;;;;;0.40;0.20;;;5.80;99.90;;;;;;4995054;28;20470;-72
2021/10/10 02:21:51;;;;;;;0.40;0.40;;;6.10;99.90;;;;;;4976891;28;20723;-72
2021/10/10 02:24:17;;;;;;;0.40;0.28;;;5.90;99.90;;;;;;4995215;28;20382;-72
2021/10/10 02:26:43;;;;;;;0.40;0.20;;;6.00;99.90;;;;;;4993999;28;20391;-72
2021/10/10 02:29:08;;;;;;;0.40;0.20;;;5.50;99.90;;;;;;4994795;28;20470;-72
2021/10/10 02:31:34;;;;;;;1.50;0.70;;;5.90;99.90;;;;;;4994135;28;20417;-72
2021/10/10 02:34:00;;;;;;;0.40;0.20;;;5.90;99.90;;;;;;4994844;28;20394;-71
2021/10/10 02:36:25;;;;;;;0.40;0.20;;;5.80;99.90;;;;;;4994780;28;20410;-71
2021/10/10 02:38:51;;;;;;;0.70;0.50;;;5.80;99.90;;;;;;4994104;28;20382;-72
2021/10/10 02:41:17;;;;;;;0.40;0.20;;;5.80;99.90;;;;;;4994582;28;20449;-71
2021/10/10 02:43:42;;;;;;;0.40;0.40;;;5.70;99.90;;;;;;4993733;28;20824;-71
2021/10/10 02:46:08;;;;;;;0.40;0.20;;;5.70;99.90;;;;;;4980101;28;20380;-72
2021/10/10 02:48:33;;;;;;;0.40;0.20;;;6.40;99.90;;;;;;4974192;28;20444;-73
2021/10/10 02:50:59;;;;;;;0.40;0.20;;;5.70;99.90;;;;;;4974962;28;20392;-72
2021/10/10 02:53:25;;;;;;;0.40;0.20;;;5.70;99.90;;;;;;4975318;28;20392;-71
2021/10/10 02:55:50;;;;;;;0.40;0.30;;;5.80;99.90;;;;;;4974020;28;20402;-72
2021/10/10 02:58:16;;;;;;;0.60;0.50;;;5.70;99.90;;;;;;4974874;28;20394;-72
2021/10/10 03:00:42;;;;;;;2.70;1.40;;;5.60;99.90;;;;;;4974253;28;20376;-72
2021/10/10 03:03:07;;;;;;;0.70;0.70;;;5.70;99.90;;;;;;4957465;28;20383;-72
2021/10/10 03:05:33;;;;;;;0.40;0.20;;;5.00;99.90;;;;;;4974189;28;20836;-73
2021/10/10 03:07:58;;;;;;;0.40;0.20;;;5.60;99.90;;;;;;4974642;28;20442;-71
2021/10/10 03:10:24;;;;;;;0.40;0.30;;;6.00;99.90;;;;;;4974623;28;20392;-71
2021/10/10 03:12:50;;;;;;;0.50;0.50;;;5.60;99.90;;;;;;4973976;28;20663;-72
2021/10/10 03:15:15;;;;;;;0.40;0.30;;;5.30;99.90;;;;;;4974879;28;20391;-71
2021/10/10 03:17:41;;;;;;;0.50;0.50;;;5.70;99.90;;;;;;4973860;28;20887;-72
2021/10/10 03:20:07;;;;;;;0.40;0.23;;;5.70;99.90;;;;;;4974278;28;20368;-71
2021/10/10 03:22:33;;;;;;;0.70;0.70;;;5.70;99.90;;;;;;4973796;28;20904;-72
2021/10/10 03:24:58;;;;;;;0.40;0.30;;;6.30;99.90;;;;;;4974102;28;20412;-71
2021/10/10 03:27:27;;;;;;;0.40;0.30;;;5.60;99.90;;;;;;4973912;28;20511;-71
2021/10/10 03:29:54;;;;;;;0.40;0.30;;;5.60;99.90;;;;;;4973716;28;20435;-72
2021/10/10 03:32:20;;;;;;;0.40;0.30;;;6.00;99.90;;;;;;4974257;28;20385;-71
2021/10/10 03:34:46;;;;;;;0.40;0.30;;;5.80;99.90;;;;;;4973571;28;20467;-71
2021/10/10 03:37:11;;;;;;;0.40;0.30;;;5.50;99.90;;;;;;4974081;28;20479;-71
2021/10/10 03:39:37;;;;;;;0.60;0.60;;;5.40;99.90;;;;;;4973675;28;20835;-72
2021/10/10 03:42:03;;;;;;;0.40;0.30;;;5.70;99.90;;;;;;4973967;28;20466;-71
2021/10/10 03:44:28;;;;;;;0.40;0.20;;;5.50;99.90;;;;;;4975013;28;20380;-71
2021/10/10 03:46:54;;;;;;;0.40;0.30;;;5.90;99.90;;;;;;4992675;28;20407;-71
2021/10/10 03:49:20;;;;;;;0.90;0.80;;;6.60;99.90;;;;;;4993464;28;20809;-71
2021/10/10 03:51:45;;;;;;;0.40;0.20;;;6.10;99.90;;;;;;4992475;28;20378;-71
2021/10/10 03:56:49;;;;;;;0.50;0.50;;;5.50;99.90;;;;;;4992629;28;20430;-71
2021/10/10 03:59:15;;;;;;;0.40;0.30;;;5.50;99.90;;;;;;4993388;28;20391;-71
2021/10/10 04:01:42;;;;;;;0.40;0.30;;;5.40;99.90;;;;;;4992906;28;20374;-72
2021/10/10 04:04:08;;;;;;;0.40;0.20;;;5.20;99.90;;;;;;4993665;28;20452;-71
2021/10/10 04:06:34;;;;;;;0.40;0.30;;;5.30;99.90;;;;;;4993279;28;20406;-72
2021/10/10 04:09:00;;;;;;;0.40;0.20;;;5.30;99.90;;;;;;4993258;28;20727;-71
2021/10/10 04:11:25;;;;;;;0.40;0.30;;;5.20;99.90;;;;;;4993240;28;20386;-71
2021/10/10 04:13:51;;;;;;;0.40;0.38;;;5.70;99.90;;;;;;4992529;28;20382;-72
2021/10/10 04:16:17;;;;;;;0.40;0.30;;;5.40;99.90;;;;;;4993326;28;20378;-71
2021/10/10 04:18:43;;;;;;;0.40;0.30;;;5.30;99.90;;;;;;4992390;28;20851;-71
2021/10/10 04:21:08;;;;;;;0.60;0.60;;;5.40;99.90;;;;;;4993527;28;20390;-71
2021/10/10 04:23:34;;;;;;;0.40;0.20;;;5.30;99.90;;;;;;4975382;28;20402;-71
2021/10/10 04:26:00;;;;;;;1.10;1.00;;;5.40;99.90;;;;;;4992911;28;20421;-71
2021/10/10 04:28:26;;;;;;;0.40;0.20;;;5.30;99.90;;;;;;4992629;28;20422;-72
2021/10/10 04:30:52;;;;;;;0.40;0.20;;;5.30;99.90;;;;;;4992798;28;20440;-71
2021/10/10 04:33:18;;;;;;;0.50;0.50;;;5.60;99.90;;;;;;4993044;28;20464;-71
2021/10/10 04:35:44;;;;;;;0.40;0.30;;;5.30;99.90;;;;;;4992185;28;20767;-72
2021/10/10 04:38:10;;;;;;;0.40;0.30;;;5.40;99.90;;;;;;4992521;28;20411;-73
2021/10/10 04:40:36;;;;;;;0.40;0.20;;;5.30;99.90;;;;;;4992480;28;20390;-73
2021/10/10 04:43:09;;;;;;;0.60;0.60;;;5.40;99.90;;;;;;4992900;28;20456;-73
2021/10/10 04:45:35;;;;;;;0.40;0.25;;;5.50;99.90;;;;;;4983002;28;20419;-72
2021/10/10 04:48:01;;;;;;;0.40;0.20;;;5.50;99.90;;;;;;4972635;28;20408;-73
2021/10/10 04:50:26;;;;;;;0.40;0.20;;;5.40;99.90;;;;;;4956259;28;20769;-73
2021/10/10 04:52:52;;;;;;;0.40;0.20;;;5.40;99.90;;;;;;4972674;28;20392;-73
2021/10/10 04:55:17;;;;;;;0.40;0.20;;;5.10;99.90;;;;;;4973372;28;20512;-73
2021/10/10 04:57:43;;;;;;;0.40;0.30;;;5.30;99.90;;;;;;4972556;28;20942;-73
2021/10/10 05:00:10;;;;;;;0.50;0.50;;;5.40;99.90;;;;;;4973406;28;20755;-73
2021/10/10 05:02:35;;;;;;;1.10;0.70;;;5.40;99.90;;;;;;4972995;28;20380;-73
2021/10/10 05:05:01;;;;;;;0.40;0.20;;;5.40;99.90;;;;;;4972490;28;20810;-73
2021/10/10 05:07:29;;;;;;;0.40;0.20;;;5.40;99.90;;;;;;4972947;28;20422;-73
2021/10/10 05:09:54;;;;;;;0.40;0.20;;;5.50;99.90;;;;;;4972470;28;20474;-73
2021/10/10 05:12:20;;;;;;;0.40;0.20;;;5.00;99.90;;;;;;4972972;28;20862;-72
2021/10/10 05:14:46;;;;;;;1.10;1.00;;;5.40;99.90;;;;;;4972642;28;20442;-73
2021/10/10 05:17:11;;;;;;;0.40;0.20;;;5.30;99.90;;;;;;4973029;28;20734;-73
2021/10/10 05:19:37;;;;;;;0.40;0.30;;;4.70;99.90;;;;;;4972788;28;20451;-72
2021/10/10 05:22:03;;;;;;;0.60;0.50;;;5.10;99.90;;;;;;4972240;28;20377;-73
2021/10/10 05:24:29;;;;;;;0.50;0.50;;;5.10;99.90;;;;;;4972685;28;20384;-72
2021/10/10 05:26:55;;;;;;;0.40;0.30;;;5.20;99.90;;;;;;4971867;28;20442;-73
2021/10/10 05:29:21;;;;;;;2.30;0.60;;;5.10;99.90;;;;;;4972599;28;20877;-72
2021/10/10 05:31:46;;;;;;;0.40;0.30;;;5.00;99.90;;;;;;4971855;28;20419;-73
2021/10/10 05:34:12;;;;;;;0.40;0.30;;;5.00;99.90;;;;;;4972604;28;20387;-74
2021/10/10 05:36:37;;;;;;;0.40;0.30;;;5.10;99.90;;;;;;4972703;28;20380;-73
2021/10/10 05:39:03;;;;;;;0.40;0.30;;;5.10;99.90;;;;;;4971680;28;20726;-73
2021/10/10 05:41:29;;;;;;;0.60;0.60;;;5.20;99.90;;;;;;4972661;28;20371;-73
2021/10/10 05:43:55;;;;;;;0.40;0.30;;;4.90;99.90;;;;;;4971648;28;20427;-72
2021/10/10 05:46:20;;;;;;;0.40;0.30;;;4.80;99.90;;;;;;4972170;28;20399;-74
2021/10/10 05:48:46;;;;;;;0.40;0.20;;;4.80;99.90;;;;;;4971760;28;20773;-73
2021/10/10 05:51:12;;;;;;;0.40;0.30;;;4.80;99.90;;;;;;4972302;28;20391;-73
2021/10/10 05:53:39;;;;;;;0.40;0.20;;;4.80;99.90;;;;;;4986366;28;20396;-74
2021/10/10 05:56:06;;;;;;;0.40;0.20;;;4.90;99.90;;;;;;4988956;28;20879;-73
2021/10/10 05:58:38;;;;;;;0.40;0.20;;;4.90;99.90;;;;;;4988724;28;20408;-72
2021/10/10 06:01:05;;;;;;;0.40;0.30;;;4.80;99.90;;;;;;4986843;28;20533;-72
2021/10/10 06:03:31;;;;;;;0.40;0.30;;;4.90;99.90;;;;;;4987070;28;20721;-74
2021/10/10 06:05:57;;;;;;;0.40;0.20;;;4.80;99.90;;;;;;4986833;28;20397;-74
2021/10/10 06:08:23;;;;;;;0.40;0.20;;;4.80;99.90;;;;;;4987760;28;20912;-72
2021/10/10 06:10:49;;;;;;;0.70;0.70;;;5.00;99.90;;;;;;4988120;28;20843;-72
2021/10/10 06:13:14;;;;;;;0.40;0.20;;;4.90;99.90;;;;;;4986757;28;20869;-72
2021/10/10 06:15:40;;;;;;;0.40;0.30;;;5.00;99.90;;;;;;4988414;28;20930;-72
2021/10/10 06:18:10;;;;;;;0.40;0.40;;;4.80;99.90;;;;;;4988883;28;20466;-72
2021/10/10 06:20:36;;;;;;;0.60;0.60;;;5.20;99.90;;;;;;4987763;28;20385;-73
2021/10/10 06:23:03;;;;;;;0.40;0.20;;;5.10;99.90;;;;;;4969234;28;20727;-72
2021/10/10 06:25:28;;;;;;;0.40;0.30;;;5.20;99.90;;;;;;4988106;28;20404;-72
2021/10/10 06:27:54;;;;;;;0.40;0.20;;;5.40;99.90;;;;;;4986848;28;20438;-72
2021/10/10 06:30:19;;;;;;;0.40;0.30;;;5.40;99.90;;;;;;4987867;28;20395;-72
2021/10/10 06:32:45;;;;;;;0.40;0.20;;;5.40;99.90;;;;;;4967257;28;20381;-73
2021/10/10 06:35:11;;;;;;;0.70;0.60;;;5.20;99.90;;;;;;4988219;28;20768;-73
2021/10/10 06:37:36;;;;;;;0.40;0.30;;;4.90;99.90;;;;;;4989141;28;20576;-72
2021/10/10 06:40:03;;;;;;;0.50;0.50;;;5.20;99.90;;;;;;4989029;28;20496;-73
2021/10/10 06:42:28;;;;;;;1.60;1.00;;;5.20;99.90;;;;;;4991444;28;20400;-72
2021/10/10 06:44:54;;;;;;;0.40;0.20;;;5.40;99.90;;;;;;4988992;28;20389;-71
2021/10/10 06:47:20;;;;;;;0.40;0.30;;;5.40;99.90;;;;;;4989301;28;20412;-72
2021/10/10 06:49:45;;;;;;;0.40;0.22;;;5.50;99.90;;;;;;4985157;28;20736;-72
2021/10/10 06:52:13;;;;;;;0.40;0.30;;;5.70;99.90;;;;;;4985371;28;20885;-72
2021/10/10 06:54:39;;;;;;;0.40;0.20;;;5.50;99.90;;;;;;4987217;28;20910;-72
2021/10/10 06:57:05;;;;;;;0.40;0.20;;;5.50;99.90;;;;;;4969989;28;20412;-71
2021/10/10 06:59:30;;;;;;;0.40;0.20;;;5.30;99.90;;;;;;4987737;28;20878;-72
2021/10/10 07:01:56;;;;;;;1.00;0.80;;;5.70;99.90;;;;;;4990550;28;20423;-72
2021/10/10 07:04:22;;;;;;;0.40;0.30;;;5.90;99.90;;;;;;4990702;28;20381;-72
2021/10/10 07:06:48;;;;;;;0.40;0.40;;;5.50;99.90;;;;;;4990648;28;20437;-71
2021/10/10 07:09:13;;;;;;;0.40;0.40;;;5.70;99.90;;;;;;4989249;28;20405;-71
2021/10/10 07:11:39;;;;;;;0.40;0.20;;;5.80;99.90;;;;;;4990922;28;20385;-71
2021/10/10 07:14:06;;;;;;;0.60;0.60;;;6.00;99.90;;;;;;4990436;28;21575;-71
2021/10/10 07:16:33;;;;;;;0.40;0.30;;;6.10;99.90;;;;;;4992172;28;20417;-71
2021/10/10 07:18:59;;;;;;;0.40;0.40;;;5.70;99.90;;;;;;4973332;28;20600;-72
2021/10/10 07:27:07;;;;;;;0.50;0.40;;;6.90;99.90;;;;;;4989504;28;20443;-72
2021/10/10 07:29:33;;;;;;;0.40;0.30;;;6.50;99.90;;;;;;4989628;28;20398;-72
2021/10/10 07:31:59;;;;;;;0.40;0.30;;;6.70;99.90;;;;;;4989308;28;20480;-72
2021/10/10 07:34:24;;;;;;;0.40;0.20;;;6.70;99.90;;;;;;4991432;28;20824;-72
2021/10/10 07:36:50;;;;;;;0.40;0.22;;;6.70;99.90;;;;;;4993225;28;20382;-72
2021/10/10 07:39:15;;;;;;;0.40;0.20;;;6.80;99.90;;;;;;4993311;28;20771;-72
2021/10/10 07:41:41;;;;;;;0.40;0.30;;;7.20;99.90;;;;;;4993693;28;20379;-71
2021/10/10 07:44:12;;;;;;;0.40;0.30;;;6.90;99.90;;;;;;4993296;28;20375;-72
2021/10/10 07:46:42;;;;;;;0.40;0.20;;;6.80;99.90;;;;;;4993458;28;20386;-72
2021/10/10 07:49:08;;;;;;;0.40;0.20;;;7.10;99.90;;;;;;4992971;28;20398;-72
2021/10/10 07:51:38;;;;;;;0.40;0.20;;;6.90;99.90;;;;;;4993683;28;20863;-72
2021/10/10 07:54:05;;;;;;;0.60;0.60;;;6.80;99.90;;;;;;4993127;28;20439;-72
2021/10/10 07:56:31;;;;;;;0.43;0.38;;;6.50;99.90;;;;;;4993383;28;20461;-71
2021/10/10 07:58:57;;;;;;;0.40;0.20;;;7.10;99.90;;;;;;4992953;28;20398;-71
2021/10/10 08:01:22;;;;;;;0.63;0.63;;;7.20;99.90;;;;;;4993555;28;20379;-72
2021/10/10 08:03:48;;;;;;;0.40;0.20;;;7.10;99.90;;;;;;4975870;28;20402;-73
2021/10/10 08:06:14;;;;;;;0.90;0.60;;;7.30;99.90;;;;;;4989410;28;20555;-71
2021/10/10 08:08:39;;;;;;;0.47;0.47;;;7.40;99.90;;;;;;4982924;28;20892;-71
2021/10/10 08:11:05;;;;;;;0.80;0.80;;;7.30;99.90;;;;;;4982075;28;20791;-71
2021/10/10 08:13:31;;;;;;;0.40;0.30;;;7.30;99.90;;;;;;4986572;28;20387;-72
2021/10/10 08:15:56;;;;;;;0.40;0.40;;;7.30;99.90;;;;;;4992708;28;20375;-72
2021/10/10 08:18:22;;;;;;;0.40;0.20;;;7.40;99.90;;;;;;4992995;28;20477;-71
2021/10/10 08:20:48;;;;;;;0.60;0.60;;;7.40;99.90;;;;;;4993001;28;20441;-71
2021/10/10 08:23:13;;;;;;;0.40;0.20;;;7.50;99.90;;;;;;4993154;28;20385;-71
2021/10/10 08:25:39;;;;;;;0.40;0.20;;;7.70;99.90;;;;;;4993467;28;20470;-71
2021/10/10 08:28:05;;;;;;;0.47;0.43;;;7.80;99.90;;;;;;4987013;28;20433;-72
2021/10/10 08:30:31;;;;;;;1.70;1.00;;;8.20;99.90;;;;;;4984273;28;20862;-71
2021/10/10 08:32:57;;;;;;;0.40;0.30;;;7.90;99.90;;;;;;4981926;28;20376;-71
2021/10/10 08:35:22;;;;;;;0.40;0.30;;;8.00;99.90;;;;;;4984534;28;20428;-72
2021/10/10 08:37:48;;;;;;;0.43;0.35;;;7.80;99.90;;;;;;4981855;28;20388;-72
2021/10/10 08:40:15;;;;;;;0.50;0.40;;;8.10;99.90;;;;;;4980682;28;20383;-71
2021/10/10 08:42:47;;;;;;;0.40;0.30;;;8.30;99.90;;;;;;4984313;28;20420;-71
2021/10/10 08:45:18;;;;;;;0.40;0.22;;;8.30;99.90;;;;;;4981611;28;20412;-72
2021/10/10 08:47:44;;;;;;;0.40;0.30;;;8.30;99.90;;;;;;4982424;28;20412;-72
2021/10/10 08:50:26;;;;;;;0.40;0.30;;;8.40;99.90;;;;;;4980972;28;21247;-72
2021/10/10 08:52:58;;;;;;;0.40;0.30;;;8.40;99.90;;;;;;4980240;28;20908;-72
2021/10/10 08:55:25;;;;;;;2.20;1.10;;;8.40;99.90;;;;;;4980332;28;20484;-74
2021/10/10 08:57:52;;;;;;;0.80;0.50;;;8.20;99.90;;;;;;4988432;28;20402;-71
2021/10/10 09:00:20;;;;;;;0.40;0.30;;;8.20;99.90;;;;;;4970144;28;20707;-72
2021/10/10 09:02:48;;;;;;;0.40;0.20;;;8.30;99.90;;;;;;4988327;28;20397;-74
2021/10/10 09:05:15;;;;;;;0.40;0.30;;;8.30;99.90;;;;;;4984595;28;21319;-72
2021/10/10 09:07:40;;;;;;;0.40;0.30;;;8.40;99.90;;;;;;4985247;28;20909;-73
2021/10/10 09:10:25;;;;;;;0.40;0.30;;;8.50;99.90;;;;;;4987067;28;20403;-73
2021/10/10 09:12:52;;;;;;;0.80;0.50;;;8.40;99.90;;;;;;4978972;28;20406;-72
2021/10/10 09:15:22;;;;;;;0.40;0.20;;;8.50;99.90;;;;;;4977389;28;20487;-73
2021/10/10 09:17:56;;;;;;;0.90;0.70;;;8.50;99.90;;;;;;4975954;28;20930;-73
2021/10/10 09:20:29;;;;;;;0.40;0.20;;;8.60;99.90;;;;;;4976357;28;20460;-72
2021/10/10 09:22:55;;;;;;;0.40;0.20;;;8.70;99.90;;;;;;4975497;28;20391;-73
2021/10/10 09:25:21;;;;;;;0.40;0.30;;;8.70;99.90;;;;;;4975470;28;20468;-72
2021/10/10 09:27:47;;;;;;;0.40;0.20;;;8.90;99.90;;;;;;4975603;28;20652;-72
2021/10/10 09:30:13;;;;;;;0.40;0.30;;;8.90;99.90;;;;;;4974513;28;20550;-73
2021/10/10 09:32:46;;;;;;;0.60;0.50;;;8.90;99.90;;;;;;4976196;28;20525;-71
2021/10/10 09:35:24;;;;;;;0.90;0.90;;;9.00;99.90;;;;;;4975302;28;20395;-72
2021/10/10 09:38:04;;;;;;;0.40;0.20;;;9.20;99.90;;;;;;4974794;28;20888;-74
2021/10/10 09:40:33;;;;;;;0.60;0.60;;;9.10;99.90;;;;;;4974526;28;20395;-74
2021/10/10 09:43:03;;;;;;;0.40;0.40;;;9.20;99.90;;;;;;4976734;28;20390;-74
2021/10/10 09:45:40;;;;;;;0.70;0.50;;;9.40;99.90;;;;;;4975685;28;20762;-74
2021/10/10 09:48:06;;;;;;;0.50;0.50;;;9.50;99.90;;;;;;4974507;28;20434;-73
2021/10/10 09:50:36;;;;;;;0.70;0.70;;;9.50;99.90;;;;;;4974822;28;20423;-73
2021/10/10 09:53:07;;;;;;;0.40;0.30;;;9.50;99.90;;;;;;4976658;28;21641;-73
2021/10/10 09:55:36;;;;;;;0.40;0.20;;;9.50;99.90;;;;;;4977545;28;20435;-74
2021/10/10 09:58:02;;;;;;;0.40;0.30;;;9.80;99.90;;;;;;4973566;28;20755;-74
2021/10/10 10:00:30;;;;;;;0.60;0.50;;;9.80;99.90;;;;;;4974689;28;20396;-73
2021/10/10 10:03:10;;;;;;;0.40;0.40;;;9.80;99.90;;;;;;4966928;28;20916;-73
2021/10/10 10:05:38;;;;;;;0.40;0.40;;;9.80;99.90;;;;;;4972678;28;20395;-73
2021/10/10 10:08:05;;;;;;;0.40;0.20;;;9.90;99.90;;;;;;4972340;28;20425;-74
2021/10/10 10:10:33;;;;;;;0.40;0.20;;;10.00;99.90;;;;;;4974703;28;20399;-73
2021/10/10 10:13:01;;;;;;;0.40;0.20;;;10.10;99.90;;;;;;4973250;28;21009;-72
2021/10/10 10:15:35;;;;;;;0.40;0.30;;;10.00;99.90;;;;;;4975789;28;20515;-73
2021/10/10 10:18:01;;;;;;;0.40;0.30;;;10.10;99.90;;;;;;4970835;28;20401;-73
2021/10/10 10:20:29;;;;;;;0.40;0.30;;;10.20;99.90;;;;;;4974064;28;20456;-73
2021/10/10 10:22:57;;;;;;;0.40;0.20;;;10.20;99.90;;;;;;4971494;28;20394;-73
2021/10/10 10:25:24;;;;;;;0.40;0.30;;;10.50;99.90;;;;;;4975441;28;20404;-73
2021/10/10 10:27:51;;;;;;;0.50;0.50;;;10.50;99.90;;;;;;4974558;28;20426;-72
2021/10/10 10:30:22;;;;;;;0.40;0.20;;;10.70;99.90;;;;;;4973634;28;20403;-71
2021/10/10 10:32:48;;;;;;;0.70;0.30;;;10.60;99.90;;;;;;4976703;28;20529;-73
2021/10/10 10:35:16;;;;;;;0.40;0.30;;;10.80;99.90;;;;;;4974979;28;20766;-70
2021/10/10 10:37:41;;;;;;;0.40;0.30;;;10.60;99.90;;;;;;4974997;28;20781;-72
2021/10/10 10:40:17;;;;;;;0.40;0.30;;;10.70;99.90;;;;;;4978306;28;20400;-73
2021/10/10 10:42:47;;;;;;;0.40;0.30;;;10.70;99.90;;;;;;4978582;28;20424;-73
2021/10/10 10:45:29;;;;;;;0.40;0.20;;;10.90;99.90;;;;;;4976266;28;20791;-74
2021/10/10 10:47:57;;;;;;;0.40;0.30;;;11.10;99.90;;;;;;4975642;28;20445;-72
2021/10/10 10:50:25;;;;;;;0.40;0.30;;;11.20;99.90;;;;;;4977604;28;20821;-75
2021/10/10 10:52:59;;;;;;;0.40;0.30;;;11.40;99.90;;;;;;4977882;28;20414;-74
2021/10/10 10:55:33;;;;;;;0.40;0.25;;;11.60;99.90;;;;;;4976677;28;20425;-75
2021/10/10 10:58:14;;;;;;;0.40;0.30;;;11.50;99.90;;;;;;4973854;28;20801;-75
2021/10/10 11:00:42;;;;;;;0.90;0.70;;;11.30;99.90;;;;;;4976202;28;20603;-73
2021/10/10 11:03:22;;;;;;;0.40;0.30;;;11.60;99.90;;;;;;4974012;28;21034;-73
2021/10/10 11:05:52;;;;;;;0.40;0.20;;;12.40;99.90;;;;;;4977625;28;20797;-73
2021/10/10 11:08:25;;;;;;;0.70;0.50;;;13.40;99.90;;;;;;4976815;28;20494;-73
2021/10/10 11:11:15;;;;;;;0.40;0.30;;;13.70;99.90;;;;;;4976391;28;20464;-73
2021/10/10 11:13:46;;;;;;;0.40;0.30;;;14.30;99.80;;;;;;4969648;28;20406;-73
2021/10/10 11:16:13;;;;;;;0.40;0.20;;;14.80;99.00;;;;;;4977774;28;20438;-73
2021/10/10 11:19:02;;;;;;;0.40;0.20;;;14.30;98.40;;;;;;4975937;28;20994;-73
2021/10/10 11:21:35;;;;;;;0.40;0.30;;;14.60;96.50;;;;;;4975696;28;20479;-72
2021/10/10 11:24:06;;;;;;;0.40;0.30;;;14.70;97.50;;;;;;4975855;28;20750;-73
2021/10/10 11:26:36;;;;;;;0.40;0.30;;;15.00;97.70;;;;;;4973998;28;20451;-74
2021/10/10 11:29:10;;;;;;;0.40;0.30;;;14.90;95.90;;;;;;4974491;28;20960;-73
2021/10/10 11:31:38;;;;;;;0.40;0.20;;;14.40;95.70;;;;;;4973576;28;20397;-73
2021/10/10 11:34:11;;;;;;;0.40;0.30;;;14.50;96.30;;;;;;4976210;28;20395;-73
2021/10/10 11:36:49;;;;;;;0.40;0.30;;;15.30;98.30;;;;;;4974986;28;20899;-72
2021/10/10 11:39:14;;;;;;;0.40;0.30;;;15.20;94.40;;;;;;4978956;28;20405;-73
2021/10/10 11:41:43;;;;;;;0.40;0.30;;;15.50;94.40;;;;;;4967834;28;20823;-73
2021/10/10 11:44:14;;;;;;;0.40;0.30;;;16.30;94.70;;;;;;4969759;28;20428;-73
2021/10/10 11:46:49;;;;;;;0.40;0.30;;;16.10;94.40;;;;;;4975130;28;20396;-73
2021/10/10 11:52:23;;;;;;;0.40;0.20;;;16.00;93.20;;;;;;4976087;28;20827;-73
2021/10/10 11:55:21;;;;;;;0.40;0.30;;;16.30;92.90;;;;;;4974946;28;20492;-73
2021/10/10 11:57:42;;;;;;;0.40;0.30;;;17.30;91.30;;;;;;4974773;28;20405;-73
2021/10/10 12:00:12;;;;;;;0.60;0.60;;;16.80;90.90;;;;;;4976667;28;20969;-73
2021/10/10 12:02:41;;;;;;;0.40;0.30;;;16.40;91.10;;;;;;4976759;28;20698;-72
2021/10/10 12:05:16;;;;;;;0.40;0.20;;;17.00;90.50;;;;;;4976745;28;20464;-73
2021/10/10 12:07:43;;;;;;;0.80;0.80;;;17.60;89.70;;;;;;4976401;28;20430;-72
2021/10/10 12:10:20;;;;;;;0.40;0.20;;;16.70;90.50;;;;;;4977319;28;20397;-73
2021/10/10 12:12:46;;;;;;;0.40;0.20;;;16.70;88.70;;;;;;4976785;28;20381;-74
2021/10/10 12:15:17;;;;;;;0.40;0.30;;;16.10;88.70;;;;;;4976425;28;20846;-74
2021/10/10 12:17:47;;;;;;;0.40;0.30;;;15.70;89.80;;;;;;4975633;28;20757;-72
2021/10/10 12:20:15;;;;;;;0.40;0.30;;;15.10;91.70;;;;;;4976156;28;20398;-72
2021/10/10 12:22:50;;;;;;;0.40;0.20;;;15.30;94.00;;;;;;4975837;28;20404;-72
2021/10/10 12:25:32;;;;;;;0.40;0.30;;;15.10;92.40;;;;;;4975718;28;20445;-72
2021/10/10 12:28:04;;;;;;;0.40;0.30;;;15.60;91.60;;;;;;4974927;28;20927;-71
2021/10/10 12:30:36;;;;;;;0.40;0.20;;;15.70;93.00;;;;;;4974682;28;20394;-71
2021/10/10 12:33:20;;;;;;;0.40;0.30;;;16.00;91.40;;;;;;4975896;28;20394;-72
2021/10/10 12:36:00;;;;;;;0.40;0.30;;;16.30;88.30;;;;;;4974367;28;21059;-72
2021/10/10 12:38:34;;;;;;;0.40;0.27;;;16.00;90.30;;;;;;4973888;28;20472;-73
2021/10/10 12:41:20;;;;;;;0.40;0.22;;;16.00;90.10;;;;;;4974365;28;20413;-73
2021/10/10 12:43:51;;;;;;;0.40;0.30;;;16.00;87.50;;;;;;4977374;28;20403;-73
2021/10/10 12:46:21;;;;;;;0.40;0.20;;;15.40;91.40;;;;;;4987346;28;20434;-71
2021/10/10 12:49:05;;;;;;;0.40;0.30;;;16.30;90.30;;;;;;4985443;28;20438;-71
2021/10/10 12:51:31;;;;;;;0.40;0.30;;;15.80;90.70;;;;;;4987796;28;20393;-72
2021/10/10 12:54:26;;;;;;;0.40;0.30;;;14.90;91.70;;;;;;4987741;28;20485;-71
2021/10/10 12:57:10;;;;;;;0.40;0.40;;;15.40;93.20;;;;;;4984813;28;20503;-71
2021/10/10 12:59:38;;;;;;;0.70;0.50;;;16.40;91.10;;;;;;4983757;28;20774;-71
2021/10/10 13:02:08;;;;;;;0.40;0.40;;;15.00;90.20;;;;;;4967834;28;20396;-71
2021/10/10 13:04:38;;;;;;;0.40;0.40;;;15.50;92.30;;;;;;4985953;28;20422;-71
2021/10/10 13:07:05;;;;;;;0.40;0.30;;;15.30;91.90;;;;;;4984306;28;20393;-72
2021/10/10 13:09:31;;;;;;;0.40;0.20;;;15.80;90.30;;;;;;4985995;28;21261;-71